createdAt,value
2022-12-23T00:01:37.243Z,92.65
2022-12-23T00:04:06.430Z,91.93
2022-12-23T00:06:34.967Z,93.53
2022-12-23T00:09:03.516Z,93.86
2022-12-23T00:11:31.780Z,93.06
2022-12-23T00:14:21.474Z,94.72
2022-12-23T00:16:51.372Z,95.46
2022-12-23T00:19:19.850Z,94.99
2022-12-23T00:21:48.775Z,95.22
2022-12-23T00:24:17.235Z,94.48
2022-12-23T00:26:45.129Z,93.45
2022-12-23T00:29:13.109Z,94.39
2022-12-23T00:31:41.429Z,94.45
2022-12-23T00:34:09.682Z,94.66
2022-12-23T00:36:38.528Z,94.50
2022-12-23T00:39:25.569Z,94.80
2022-12-23T00:42:12.236Z,93.97
2022-12-23T00:44:40.331Z,92.56
2022-12-23T00:47:28.079Z,93.40
2022-12-23T00:49:56.364Z,93.68
2022-12-23T00:52:24.226Z,94.13
2022-12-23T00:54:52.253Z,93.99
2022-12-23T00:57:20.526Z,91.68
2022-12-23T00:59:48.407Z,91.43
2022-12-23T01:02:35.326Z,94.22
2022-12-23T01:05:22.566Z,93.08
2022-12-23T01:07:50.429Z,92.73
2022-12-23T01:10:18.598Z,93.21
2022-12-23T01:12:46.430Z,92.38
2022-12-23T01:15:14.405Z,95.04
2022-12-23T01:17:42.729Z,95.55
2022-12-23T01:20:11.311Z,93.75
2022-12-23T01:22:39.296Z,94.65
2022-12-23T01:25:08.063Z,94.72
2022-12-23T01:27:35.937Z,98.04
2022-12-23T01:30:04.427Z,96.00
2022-12-23T01:32:32.619Z,93.20
2022-12-23T01:35:00.499Z,91.63
2022-12-23T01:37:28.428Z,92.58
2022-12-23T01:39:56.683Z,90.67
2022-12-23T01:42:43.422Z,92.39
2022-12-23T01:45:17.739Z,91.51
2022-12-23T01:47:50.260Z,91.15
2022-12-23T01:50:31.143Z,91.67
2022-12-23T01:53:14.231Z,91.82
2022-12-23T01:55:44.386Z,90.62
2022-12-23T01:58:21.721Z,90.02
2022-12-23T02:01:08.632Z,89.60
2022-12-23T02:03:42.518Z,89.03
2022-12-23T02:06:34.482Z,87.85
2022-12-23T02:09:17.696Z,87.55
2022-12-23T02:12:24.256Z,86.96
2022-12-23T02:15:14.058Z,87.52
2022-12-23T02:17:44.546Z,86.33
2022-12-23T02:20:34.503Z,87.58
2022-12-23T02:23:23.736Z,86.32
2022-12-23T02:26:13.620Z,86.27
2022-12-23T02:29:00.377Z,84.87
2022-12-23T02:31:47.161Z,88.50
2022-12-23T02:34:22.747Z,87.54
2022-12-23T02:37:05.010Z,88.70
2022-12-23T02:39:56.768Z,89.39
2022-12-23T02:42:31.418Z,84.10
2022-12-23T02:45:00.450Z,86.33
2022-12-23T02:47:50.828Z,81.94
2022-12-23T02:50:21.984Z,83.88
2022-12-23T02:52:52.205Z,87.28
2022-12-23T02:55:24.623Z,91.37
2022-12-23T02:57:55.217Z,91.85
2022-12-23T03:00:23.347Z,95.24
2022-12-23T03:02:51.371Z,92.62
2022-12-23T03:05:33.612Z,94.49
2022-12-23T03:08:04.281Z,96.03
2022-12-23T03:11:08.264Z,94.16
2022-12-23T03:14:13.292Z,94.60
2022-12-23T03:17:05.928Z,94.98
2022-12-23T03:20:01.242Z,92.97
2022-12-23T03:22:39.649Z,93.43
2022-12-23T03:25:32.029Z,92.49
2022-12-23T03:28:29.623Z,94.81
2022-12-23T03:30:59.691Z,94.98
2022-12-23T03:33:28.671Z,93.70
2022-12-23T03:36:02.661Z,93.70
2022-12-23T03:38:32.695Z,95.03
2022-12-23T03:41:05.192Z,94.57
2022-12-23T03:43:50.759Z,94.04
2022-12-23T03:46:33.108Z,93.21
2022-12-23T03:49:25.128Z,92.01
2022-12-23T03:52:18.914Z,91.98
2022-12-23T03:54:55.158Z,93.73
2022-12-23T03:57:26.739Z,92.96
2022-12-23T03:59:55.132Z,94.24
2022-12-23T04:02:26.196Z,94.18
2022-12-23T04:05:07.072Z,93.79
2022-12-23T04:07:45.591Z,98.39
2022-12-23T04:10:14.319Z,97.69
2022-12-23T04:12:42.263Z,94.71
2022-12-23T04:15:13.088Z,98.87
2022-12-23T04:17:41.784Z,94.04
2022-12-23T04:20:10.799Z,94.36
2022-12-23T04:22:39.744Z,93.14
2022-12-23T04:25:08.966Z,92.56
2022-12-23T04:27:37.065Z,92.60
2022-12-23T04:30:06.447Z,94.08
2022-12-23T04:32:34.829Z,94.56
2022-12-23T04:35:02.840Z,93.45
2022-12-23T04:37:30.704Z,94.45
2022-12-23T04:39:58.967Z,96.80
2022-12-23T04:42:26.955Z,96.82
2022-12-23T04:44:54.822Z,95.50
2022-12-23T04:47:23.248Z,95.56
2022-12-23T04:49:51.240Z,97.08
2022-12-23T04:52:19.088Z,94.98
2022-12-23T04:54:47.365Z,92.55
2022-12-23T04:57:16.395Z,92.71
2022-12-23T04:59:44.300Z,94.41
2022-12-23T05:02:12.815Z,94.11
2022-12-23T05:04:41.064Z,92.39
2022-12-23T05:07:08.945Z,94.07
2022-12-23T05:09:37.150Z,94.01
2022-12-23T05:12:05.111Z,92.81
2022-12-23T05:14:33.062Z,92.57
2022-12-23T05:17:07.183Z,92.05
2022-12-23T05:19:35.930Z,92.29
2022-12-23T05:22:04.136Z,93.34
2022-12-23T05:24:32.123Z,90.82
2022-12-23T05:27:00.637Z,92.88
2022-12-23T05:29:28.972Z,92.59
2022-12-23T05:31:56.922Z,91.31
2022-12-23T05:34:24.875Z,90.26
2022-12-23T05:36:53.077Z,91.30
2022-12-23T05:39:20.914Z,93.41
2022-12-23T05:41:48.810Z,95.04
2022-12-23T05:44:17.034Z,94.89
2022-12-23T05:46:45.008Z,93.88
2022-12-23T05:49:12.906Z,92.42
2022-12-23T05:51:41.088Z,92.82
2022-12-23T05:54:08.967Z,94.63
2022-12-23T05:56:36.890Z,93.33
2022-12-23T05:59:05.160Z,94.17
2022-12-23T06:01:33.211Z,93.84
2022-12-23T06:04:01.614Z,92.71
2022-12-23T06:06:29.696Z,91.94
2022-12-23T06:08:59.758Z,91.50
2022-12-23T06:11:28.849Z,92.62
2022-12-23T06:13:56.742Z,94.86
2022-12-23T06:16:24.816Z,93.71
2022-12-23T06:18:56.688Z,93.74
2022-12-23T06:21:25.748Z,94.15
2022-12-23T06:23:53.982Z,92.52
2022-12-23T06:26:22.038Z,93.10
2022-12-23T06:28:50.174Z,92.24
2022-12-23T06:31:18.463Z,92.37
2022-12-23T06:33:46.368Z,92.30
2022-12-23T06:36:14.281Z,92.57
2022-12-23T06:38:42.590Z,93.16
2022-12-23T06:41:10.503Z,90.50
2022-12-23T06:43:38.486Z,93.19
2022-12-23T06:46:06.818Z,94.84
2022-12-23T06:48:34.810Z,94.40
2022-12-23T06:51:02.793Z,92.10
2022-12-23T06:53:31.099Z,93.93
2022-12-23T06:56:02.606Z,93.88
2022-12-23T06:58:30.835Z,92.69
2022-12-23T07:00:58.828Z,97.19
2022-12-23T07:03:26.953Z,93.43
2022-12-23T07:05:55.334Z,94.45
2022-12-23T07:08:23.379Z,93.44
2022-12-23T07:10:51.404Z,95.92
2022-12-23T07:13:19.707Z,97.05
2022-12-23T07:15:47.636Z,95.53
2022-12-23T07:18:16.201Z,95.35
2022-12-23T07:20:44.467Z,95.94
2022-12-23T07:23:12.381Z,95.11
2022-12-23T07:25:40.642Z,93.70
2022-12-23T07:28:09.106Z,93.31
2022-12-23T07:30:37.207Z,92.24
2022-12-23T07:33:05.091Z,93.59
2022-12-23T07:35:33.995Z,93.90
2022-12-23T07:38:02.083Z,93.05
2022-12-23T07:40:30.006Z,92.03
2022-12-23T07:42:59.278Z,93.32
2022-12-23T07:45:28.746Z,91.90
2022-12-23T07:47:58.429Z,92.64
2022-12-23T07:50:27.189Z,94.19
2022-12-23T07:52:55.801Z,91.75
2022-12-23T07:55:23.777Z,91.77
2022-12-23T07:57:52.873Z,93.81
2022-12-23T08:00:21.292Z,94.81
2022-12-23T08:02:49.937Z,95.25
2022-12-23T08:05:19.052Z,93.50
2022-12-23T08:07:49.697Z,92.66
2022-12-23T08:10:18.154Z,92.20
2022-12-23T08:12:46.773Z,92.94
2022-12-23T08:15:14.916Z,95.48
2022-12-23T08:17:43.180Z,96.11
2022-12-23T08:20:11.613Z,94.71
2022-12-23T08:22:39.647Z,95.86
2022-12-23T08:25:08.381Z,94.36
2022-12-23T08:27:36.247Z,94.27
2022-12-23T08:30:07.105Z,91.99
2022-12-23T08:32:35.495Z,92.69
2022-12-23T08:35:03.500Z,92.31
2022-12-23T08:37:31.468Z,91.55
2022-12-23T08:39:59.737Z,92.89
2022-12-23T08:42:27.621Z,92.52
2022-12-23T08:44:55.540Z,92.03
2022-12-23T08:47:23.928Z,92.42
2022-12-23T08:49:51.894Z,91.76
2022-12-23T08:52:19.895Z,94.68
2022-12-23T08:54:48.276Z,93.78
2022-12-23T08:57:16.272Z,94.60
2022-12-23T08:59:44.343Z,93.08
2022-12-23T09:02:12.879Z,93.03
2022-12-23T09:04:41.134Z,95.50
2022-12-23T09:07:09.060Z,93.31
2022-12-23T09:09:38.369Z,92.47
2022-12-23T09:12:06.510Z,93.81
2022-12-23T09:14:34.518Z,92.73
2022-12-23T09:17:02.953Z,92.01
2022-12-23T09:19:30.952Z,91.17
2022-12-23T09:21:58.858Z,95.56
2022-12-23T09:24:27.164Z,95.04
2022-12-23T09:26:55.017Z,94.68
2022-12-23T09:29:23.387Z,92.58
2022-12-23T09:31:51.841Z,94.41
2022-12-23T09:34:19.833Z,93.11
2022-12-23T09:36:53.410Z,92.42
2022-12-23T09:39:24.404Z,91.22
2022-12-23T09:42:06.492Z,94.15
2022-12-23T09:45:28.635Z,92.31
2022-12-23T09:47:57.204Z,91.87
2022-12-23T09:50:29.505Z,92.27
2022-12-23T09:52:57.369Z,92.45
2022-12-23T09:55:34.829Z,91.99
2022-12-23T09:58:08.472Z,91.41
2022-12-23T10:00:43.222Z,95.38
2022-12-23T10:03:36.220Z,96.03
2022-12-23T10:06:21.171Z,92.93
2022-12-23T10:08:51.962Z,93.75
2022-12-23T10:11:27.333Z,91.97
2022-12-23T10:14:15.944Z,92.71
2022-12-23T10:16:47.475Z,91.67
2022-12-23T10:19:42.217Z,91.55
2022-12-23T10:22:16.500Z,94.29
2022-12-23T10:24:46.679Z,94.03
2022-12-23T10:27:36.097Z,93.85
2022-12-23T10:30:34.235Z,95.62
2022-12-23T10:33:29.007Z,94.25
2022-12-23T10:36:15.688Z,93.06
2022-12-23T10:38:55.661Z,92.36
2022-12-23T10:41:23.929Z,94.11
2022-12-23T10:44:03.888Z,94.16
2022-12-23T10:47:17.530Z,93.78
2022-12-23T10:50:09.053Z,95.21
2022-12-23T10:52:40.458Z,94.47
2022-12-23T10:55:20.727Z,95.38
2022-12-23T10:57:50.159Z,96.32
2022-12-23T11:00:22.113Z,97.47
2022-12-23T11:03:13.256Z,97.51
2022-12-23T11:05:42.110Z,97.54
2022-12-23T11:08:11.234Z,96.44
2022-12-23T11:10:39.827Z,97.83
2022-12-23T11:13:07.753Z,97.52
2022-12-23T11:15:38.843Z,97.09
2022-12-23T11:18:06.814Z,95.18
2022-12-23T11:20:36.742Z,92.29
2022-12-23T11:23:07.519Z,92.22
2022-12-23T11:25:38.581Z,92.17
2022-12-23T11:28:22.380Z,94.01
2022-12-23T11:31:12.118Z,95.29
2022-12-23T11:33:46.700Z,94.61
2022-12-23T11:36:19.622Z,93.57
2022-12-23T11:39:08.155Z,93.21
2022-12-23T11:41:51.123Z,92.63
2022-12-23T11:44:36.334Z,94.53
2022-12-23T11:47:23.023Z,95.06
2022-12-23T11:49:56.891Z,94.38
2022-12-23T11:52:27.149Z,95.11
2022-12-23T11:55:00.743Z,92.63
2022-12-23T11:57:49.009Z,96.32
2022-12-23T12:00:21.964Z,94.89
2022-12-23T12:02:55.912Z,96.78
2022-12-23T12:05:40.045Z,96.04
2022-12-23T12:08:15.225Z,94.60
2022-12-23T12:10:45.712Z,91.70
2022-12-23T12:13:42.277Z,94.58
2022-12-23T12:16:48.690Z,94.76
2022-12-23T12:19:35.422Z,93.11
2022-12-23T12:22:11.296Z,96.24
2022-12-23T12:24:44.320Z,95.63
2022-12-23T12:27:13.966Z,93.20
2022-12-23T12:29:56.730Z,93.27
2022-12-23T12:32:44.351Z,93.44
2022-12-23T12:35:31.923Z,93.29
2022-12-23T12:38:02.976Z,91.52
2022-12-23T12:40:52.214Z,90.78
2022-12-23T12:43:33.786Z,92.38
2022-12-23T12:46:47.776Z,93.07
2022-12-23T12:49:37.589Z,92.68
2022-12-23T12:52:20.664Z,96.54
2022-12-23T12:55:07.039Z,95.86
2022-12-23T12:57:36.593Z,95.21
2022-12-23T13:00:07.069Z,99.11
2022-12-23T13:02:56.723Z,96.40
2022-12-23T13:05:49.960Z,94.45
2022-12-23T13:08:52.272Z,96.51
2022-12-23T13:11:47.310Z,96.23
2022-12-23T13:14:30.211Z,94.39
2022-12-23T13:17:37.641Z,95.32
2022-12-23T13:20:19.778Z,95.44
2022-12-23T13:22:50.683Z,94.99
2022-12-23T13:25:23.206Z,95.06
2022-12-23T13:28:19.083Z,94.96
2022-12-23T13:31:11.817Z,94.90
2022-12-23T13:34:08.880Z,95.26
2022-12-23T13:36:49.406Z,95.78
2022-12-23T13:39:47.088Z,95.16
2022-12-23T13:42:25.754Z,94.35
2022-12-23T13:44:54.719Z,94.20
2022-12-23T13:47:41.916Z,93.82
2022-12-23T13:50:30.191Z,93.97
2022-12-23T13:53:07.843Z,97.58
2022-12-23T13:55:59.763Z,97.40
2022-12-23T13:58:31.472Z,96.16
2022-12-23T14:01:14.080Z,95.63
2022-12-23T14:03:45.018Z,95.91
2022-12-23T14:06:27.509Z,97.87
2022-12-23T14:08:59.400Z,99.06
2022-12-23T14:11:32.321Z,97.01
2022-12-23T14:14:06.554Z,94.88
2022-12-23T14:16:46.012Z,94.03
2022-12-23T14:19:29.405Z,92.98
2022-12-23T14:22:00.309Z,94.50
2022-12-23T14:24:34.630Z,97.23
2022-12-23T14:27:24.708Z,96.47
2022-12-23T14:30:31.493Z,95.56
2022-12-23T14:33:02.529Z,95.41
2022-12-23T14:35:40.338Z,93.74
2022-12-23T14:38:17.336Z,94.12
2022-12-23T14:40:50.634Z,95.70
2022-12-23T14:43:53.015Z,93.45
2022-12-23T14:46:36.832Z,94.44
2022-12-23T14:49:41.181Z,93.14
2022-12-23T14:52:44.807Z,91.97
2022-12-23T14:55:31.587Z,93.46
2022-12-23T14:58:13.257Z,92.63
2022-12-23T15:01:02.292Z,92.54
2022-12-23T15:03:34.341Z,91.34
2022-12-23T15:06:07.528Z,91.26
2022-12-23T15:08:39.244Z,90.35
2022-12-23T15:11:09.636Z,90.45
2022-12-23T15:13:38.222Z,87.48
2022-12-23T15:16:06.701Z,86.33
2022-12-23T15:18:34.695Z,87.65
2022-12-23T15:21:09.521Z,91.09
2022-12-23T15:23:37.523Z,90.05
2022-12-23T15:26:06.040Z,89.77
2022-12-23T15:28:39.792Z,89.44
2022-12-23T15:31:26.138Z,90.50
2022-12-23T15:34:03.942Z,91.18
2022-12-23T15:36:37.230Z,93.69
2022-12-23T15:39:14.415Z,90.33
2022-12-23T15:41:47.547Z,91.50
2022-12-23T15:44:21.756Z,91.63
2022-12-23T15:46:51.206Z,88.06
2022-12-23T15:49:22.048Z,88.59
2022-12-23T15:52:07.787Z,88.50
2022-12-23T15:54:43.507Z,92.45
2022-12-23T15:57:16.888Z,92.80
2022-12-23T15:59:45.129Z,92.05
2022-12-23T16:05:36.904Z,91.51
2022-12-23T16:08:14.170Z,91.91
2022-12-23T16:10:44.094Z,92.61
2022-12-23T16:13:20.045Z,89.64
2022-12-23T16:15:48.610Z,89.63
2022-12-23T16:18:19.753Z,88.34
2022-12-23T16:20:53.791Z,89.27
2022-12-23T16:23:22.534Z,88.07
2022-12-23T16:25:52.338Z,89.36
2022-12-23T16:28:24.563Z,90.38
2022-12-23T16:30:55.160Z,89.96
2022-12-23T16:33:44.901Z,87.23
2022-12-23T16:36:36.059Z,82.07
2022-12-23T16:39:25.688Z,84.31
2022-12-23T16:41:54.014Z,86.03
2022-12-23T16:44:22.054Z,86.80
2022-12-23T16:46:51.202Z,84.00
2022-12-23T16:49:22.451Z,85.90
2022-12-23T16:51:53.460Z,87.78
2022-12-23T16:54:21.859Z,83.89
2022-12-23T16:56:50.401Z,82.35
2022-12-23T16:59:18.410Z,84.82
2022-12-23T17:01:48.765Z,86.41
2022-12-23T17:04:17.239Z,86.39
2022-12-23T17:06:46.800Z,85.47
2022-12-23T17:09:15.179Z,80.86
2022-12-23T17:11:46.828Z,82.32
2022-12-23T17:14:21.123Z,79.80
2022-12-23T17:16:50.078Z,83.73
2022-12-23T17:19:27.168Z,80.64
2022-12-23T17:22:00.446Z,82.13
2022-12-23T17:24:28.920Z,86.22
2022-12-23T17:26:57.156Z,83.41
2022-12-23T17:29:25.452Z,86.37
2022-12-23T17:31:54.296Z,82.56
2022-12-23T17:34:24.115Z,78.35
2022-12-23T17:36:55.077Z,81.49
2022-12-23T17:39:23.481Z,79.85
2022-12-23T17:41:51.645Z,78.89
2022-12-23T17:44:20.165Z,83.39
2022-12-23T17:46:48.746Z,88.71
2022-12-23T17:49:16.690Z,84.03
2022-12-23T17:51:44.752Z,79.70
2022-12-23T17:54:23.205Z,80.25
2022-12-23T17:56:51.815Z,83.87
2022-12-23T17:59:21.908Z,82.91
2022-12-23T18:01:50.303Z,79.74
2022-12-23T18:04:18.911Z,81.41
2022-12-23T18:06:46.973Z,84.24
2022-12-23T18:09:14.931Z,84.83
2022-12-23T18:11:45.515Z,83.15
2022-12-23T18:14:32.222Z,83.73
2022-12-23T18:17:00.858Z,87.46
2022-12-23T18:19:30.827Z,86.87
2022-12-23T18:21:59.072Z,86.15
2022-12-23T18:24:27.457Z,87.67
2022-12-23T18:26:55.494Z,91.00
2022-12-23T18:29:23.572Z,91.34
2022-12-23T18:31:52.443Z,88.21
2022-12-23T18:34:21.213Z,86.73
2022-12-23T18:36:52.121Z,88.58
2022-12-23T18:39:21.140Z,88.81
2022-12-23T18:41:49.331Z,88.49
2022-12-23T18:44:19.668Z,87.56
2022-12-23T18:46:48.801Z,87.44
2022-12-23T18:49:16.973Z,86.80
2022-12-23T18:51:45.255Z,91.46
2022-12-23T18:54:17.432Z,88.93
2022-12-23T18:56:45.651Z,89.42
2022-12-23T18:59:24.024Z,90.02
2022-12-23T19:01:56.452Z,88.05
2022-12-23T19:04:25.700Z,89.25
2022-12-23T19:06:55.554Z,86.88
2022-12-23T19:09:24.336Z,85.37
2022-12-23T19:11:54.083Z,85.71
2022-12-23T19:14:22.378Z,86.64
2022-12-23T19:16:52.411Z,87.33
2022-12-23T19:19:21.731Z,89.85
2022-12-23T19:21:49.680Z,89.16
2022-12-23T19:24:17.979Z,90.29
2022-12-23T19:26:46.302Z,91.54
2022-12-23T19:29:14.368Z,90.43
2022-12-23T19:31:42.245Z,88.92
2022-12-23T19:34:14.951Z,87.50
2022-12-23T19:36:44.223Z,88.74
2022-12-23T19:39:16.988Z,90.91
2022-12-23T19:41:45.888Z,89.94
2022-12-23T19:44:14.936Z,88.96
2022-12-23T19:46:43.111Z,88.60
2022-12-23T19:49:19.297Z,85.14
2022-12-23T19:51:48.938Z,89.02
2022-12-23T19:54:18.220Z,92.47
2022-12-23T19:56:46.351Z,93.09
2022-12-23T19:59:14.760Z,94.00
2022-12-23T20:01:42.848Z,90.76
2022-12-23T20:04:11.705Z,90.29
2022-12-23T20:06:41.570Z,88.60
2022-12-23T20:09:12.210Z,88.59
2022-12-23T20:11:42.915Z,87.18
2022-12-23T20:14:12.417Z,88.31
2022-12-23T20:16:41.317Z,90.19
2022-12-23T20:19:09.649Z,93.21
2022-12-23T20:21:37.767Z,91.46
2022-12-23T20:24:06.771Z,87.05
2022-12-23T20:26:34.843Z,83.51
2022-12-23T20:29:02.826Z,86.53
2022-12-23T20:31:33.535Z,88.22
2022-12-23T20:34:02.599Z,89.29
2022-12-23T20:36:33.218Z,92.47
2022-12-23T20:39:03.603Z,92.09
2022-12-23T20:41:31.797Z,91.04
2022-12-23T20:44:33.458Z,90.85
2022-12-23T20:46:48.815Z,91.39
2022-12-23T20:49:16.987Z,89.77
2022-12-23T20:51:44.868Z,90.83
2022-12-23T20:54:13.188Z,89.50
2022-12-23T20:56:41.239Z,89.54
2022-12-23T20:59:09.258Z,92.49
2022-12-23T21:01:39.895Z,88.86
2022-12-23T21:04:10.115Z,91.04
2022-12-23T21:06:38.988Z,91.26
2022-12-23T21:09:08.946Z,90.26
2022-12-23T21:11:43.271Z,90.40
2022-12-23T21:14:12.284Z,88.42
2022-12-23T21:16:41.159Z,89.58
2022-12-23T21:19:14.757Z,89.35
2022-12-23T21:21:43.238Z,84.33
2022-12-23T21:24:11.519Z,82.43
2022-12-23T21:26:39.659Z,82.13
2022-12-23T21:29:09.292Z,84.19
2022-12-23T21:31:39.512Z,86.48
2022-12-23T21:34:08.444Z,87.17
2022-12-23T21:36:38.979Z,85.46
2022-12-23T21:39:09.006Z,80.37
2022-12-23T21:41:39.024Z,79.34
2022-12-23T21:44:07.582Z,79.36
2022-12-23T21:46:35.566Z,78.92
2022-12-23T21:49:03.892Z,81.06
2022-12-23T21:51:42.002Z,85.75
2022-12-23T21:54:11.492Z,90.13
2022-12-23T21:56:41.218Z,87.83
2022-12-23T21:59:12.646Z,86.73
2022-12-23T22:01:42.716Z,86.19
2022-12-23T22:04:11.600Z,88.86
2022-12-23T22:06:43.853Z,90.49
2022-12-23T22:09:15.655Z,89.59
2022-12-23T22:11:44.139Z,90.21
2022-12-23T22:14:14.932Z,88.84
2022-12-23T22:16:43.025Z,89.49
2022-12-23T22:19:12.077Z,88.53
2022-12-23T22:21:40.441Z,87.64
2022-12-23T22:24:09.034Z,88.89
2022-12-23T22:26:37.190Z,92.01
2022-12-23T22:29:07.178Z,89.60
2022-12-23T22:31:48.863Z,90.18
2022-12-23T22:34:21.757Z,89.83
2022-12-23T22:36:50.101Z,89.24
2022-12-23T22:39:21.417Z,88.22
2022-12-23T22:41:50.824Z,89.67
2022-12-23T22:44:20.109Z,87.50
2022-12-23T22:46:48.461Z,89.25
2022-12-23T22:49:16.950Z,89.41
2022-12-23T22:51:45.407Z,88.84
2022-12-23T22:54:13.335Z,88.56
2022-12-23T22:56:41.348Z,87.62
2022-12-23T22:59:24.229Z,88.88
2022-12-23T23:01:52.875Z,91.53
2022-12-23T23:04:21.575Z,92.80
2022-12-23T23:06:49.865Z,90.85
2022-12-23T23:09:20.245Z,89.26
2022-12-23T23:11:49.393Z,88.35
2022-12-23T23:14:18.881Z,88.42
2022-12-23T23:16:46.792Z,86.57
2022-12-23T23:19:16.600Z,86.09
2022-12-23T23:21:44.574Z,86.49
2022-12-23T23:24:12.659Z,85.75
2022-12-23T23:26:40.861Z,86.91
2022-12-23T23:29:08.751Z,89.52
2022-12-23T23:31:42.328Z,87.87
2022-12-23T23:34:13.477Z,89.51
2022-12-23T23:36:41.611Z,87.98
2022-12-23T23:39:12.120Z,87.79
2022-12-23T23:41:41.297Z,85.48
2022-12-23T23:44:09.380Z,87.60
2022-12-23T23:46:37.438Z,87.15
2022-12-23T23:49:06.021Z,86.98
2022-12-23T23:51:34.139Z,93.96
2022-12-23T23:54:02.194Z,90.91
2022-12-23T23:56:37.540Z,89.91
2022-12-23T23:59:06.045Z,91.84
